Search for airport 
image banner adimage banner adimage banner ad
image banner ad

IA99 - Lakes Rgnl Healthcare

Located in Spirit Lake, United States

ICAO - IA99, IATA -

Data provided by Airmate  

General information

Coordinates: N43°25'1" W95°7'31"
Elevation is 1462 feet MSL.
Magnetic variation is 05° East
View others Airports in Iowa

Operational data

Special qualification required
Current time UTC:
Current local time:
Weather at : KMJQ - Jackson Muni ( 28 km )
METAR: KMJQ 150935Z AUTO 00000KT 10SM CLR 12/08 A3014 RMK AO2 PWINO
View NOTAMs / SUP AIP / TFR affecting this airport [VIEW]
Communications frequencies: [VIEW]

Runways:

Airport contact information

Address: Spirit Lake United States

Satellite view of IA99